Time,TemperatureF,DewpointF,PressureIn,WindDirection,WindDirectionDegrees,WindSpeedMPH,WindSpeedGustMPH,Humidity,HourlyPrecipIn,Conditions,Clouds,dailyrainin,SoftwareType,DateUTC
2013-06-25 00:11:00,75.0,73.0,-100.00,South,186,0.0,0.0,95,0.00,,,0.49,,2013-06-25 05:11:00,
2013-06-25 00:22:00,75.0,73.0,-100.00,South,186,0.0,0.0,95,0.00,,,0.49,,2013-06-25 05:22:00,
2013-06-25 00:32:00,75.0,73.0,-100.00,South,186,0.0,0.0,95,0.00,,,0.49,,2013-06-25 05:32:00,
2013-06-25 00:44:00,75.0,73.0,-100.00,South,186,0.0,0.0,95,0.00,,,0.49,,2013-06-25 05:44:00,
2013-06-25 01:11:00,75.0,74.0,-100.00,SE,131,0.0,2.0,96,0.00,,,0.49,,2013-06-25 06:11:00,
2013-06-25 01:22:00,75.0,74.0,-100.00,SE,131,0.0,2.0,96,0.00,,,0.49,,2013-06-25 06:22:00,
2013-06-25 01:33:00,75.0,74.0,-100.00,SE,131,0.0,2.0,96,0.00,,,0.49,,2013-06-25 06:33:00,
2013-06-25 01:43:00,75.0,74.0,-100.00,SE,131,0.0,2.0,96,0.00,,,0.49,,2013-06-25 06:43:00,
2013-06-25 02:11:00,74.0,72.0,-100.00,SSE,161,0.0,5.0,95,0.00,,,0.49,,2013-06-25 07:11:00,
2013-06-25 02:22:00,74.0,72.0,-100.00,SSE,161,0.0,5.0,95,0.00,,,0.49,,2013-06-25 07:22:00,
2013-06-25 02:33:00,74.0,72.0,-100.00,SSE,161,0.0,5.0,95,0.00,,,0.49,,2013-06-25 07:33:00,
2013-06-25 02:43:00,74.0,72.0,-100.00,SSE,161,0.0,5.0,95,0.00,,,0.49,,2013-06-25 07:43:00,
2013-06-25 03:11:00,74.0,72.0,-100.00,ESE,122,0.0,0.0,95,0.00,,,0.49,,2013-06-25 08:11:00,
2013-06-25 03:21:00,74.0,72.0,-100.00,ESE,122,0.0,0.0,95,0.00,,,0.49,,2013-06-25 08:21:00,
2013-06-25 03:34:00,74.0,72.0,-100.00,ESE,122,0.0,0.0,95,0.00,,,0.49,,2013-06-25 08:34:00,
2013-06-25 03:43:00,74.0,72.0,-100.00,ESE,122,0.0,0.0,95,0.00,,,0.49,,2013-06-25 08:43:00,
2013-06-25 04:12:00,72.0,71.0,-100.00,ENE,76,0.0,0.0,96,0.01,,,0.50,,2013-06-25 09:12:00,
2013-06-25 04:22:00,72.0,71.0,-100.00,ENE,76,0.0,0.0,96,0.01,,,0.50,,2013-06-25 09:22:00,
2013-06-25 04:33:00,72.0,71.0,-100.00,ENE,76,0.0,0.0,96,0.01,,,0.50,,2013-06-25 09:33:00,
2013-06-25 04:43:00,72.0,71.0,-100.00,ENE,76,0.0,0.0,96,0.01,,,0.50,,2013-06-25 09:43:00,
2013-06-25 05:11:00,72.0,71.0,-100.00,SSE,153,0.0,0.0,97,0.00,,,-99.99,,2013-06-25 10:11:00,
2013-06-25 05:21:00,72.0,71.0,-100.00,SSE,153,0.0,0.0,97,0.00,,,-99.99,,2013-06-25 10:21:00,
2013-06-25 05:33:00,72.0,71.0,-100.00,SSE,153,0.0,0.0,97,0.00,,,-99.99,,2013-06-25 10:33:00,
2013-06-25 05:42:00,72.0,71.0,-100.00,SSE,153,0.0,0.0,97,0.00,,,-99.99,,2013-06-25 10:42:00,
2013-06-25 06:12:00,71.0,70.0,-100.00,ENE,67,0.0,0.0,97,0.00,,,0.50,,2013-06-25 11:12:00,
2013-06-25 06:22:00,71.0,70.0,-100.00,ENE,67,0.0,0.0,97,0.00,,,0.50,,2013-06-25 11:22:00,
2013-06-25 06:34:00,71.0,70.0,-100.00,ENE,67,0.0,0.0,97,0.00,,,0.50,,2013-06-25 11:34:00,
2013-06-25 06:43:00,71.0,70.0,-100.00,ENE,67,0.0,0.0,97,0.00,,,0.50,,2013-06-25 11:43:00,
2013-06-25 07:11:00,72.0,71.0,-100.00,SE,136,0.0,6.0,97,0.00,,,0.50,,2013-06-25 12:11:00,
2013-06-25 07:22:00,72.0,71.0,-100.00,SE,136,0.0,6.0,97,0.00,,,0.50,,2013-06-25 12:22:00,
2013-06-25 07:33:00,72.0,71.0,-100.00,SE,136,0.0,6.0,97,0.00,,,0.50,,2013-06-25 12:33:00,
2013-06-25 07:43:00,72.0,71.0,-100.00,SE,136,0.0,6.0,97,0.00,,,0.50,,2013-06-25 12:43:00,
2013-06-25 08:12:00,77.0,74.0,-100.00,South,169,4.0,6.0,92,0.00,,,0.50,,2013-06-25 13:12:00,
2013-06-25 08:22:00,77.0,74.0,-100.00,South,169,4.0,6.0,92,0.00,,,0.50,,2013-06-25 13:22:00,
2013-06-25 08:34:00,77.0,74.0,-100.00,South,169,4.0,6.0,92,0.00,,,0.50,,2013-06-25 13:34:00,
2013-06-25 08:42:00,77.0,74.0,-100.00,South,169,4.0,6.0,92,0.00,,,0.50,,2013-06-25 13:42:00,
2013-06-25 09:11:00,81.0,76.0,-100.00,SSW,197,5.0,8.0,84,0.00,,,0.50,,2013-06-25 14:11:00,
2013-06-25 09:23:00,81.0,76.0,-100.00,SSW,197,5.0,8.0,84,0.00,,,0.50,,2013-06-25 14:23:00,
2013-06-25 09:34:00,81.0,76.0,-100.00,SSW,197,5.0,8.0,84,0.00,,,0.50,,2013-06-25 14:34:00,
2013-06-25 09:43:00,81.0,76.0,-100.00,SSW,197,5.0,8.0,84,0.00,,,0.50,,2013-06-25 14:43:00,
2013-06-25 10:11:00,83.0,75.0,-100.00,SW,224,6.0,11.0,77,0.00,,,0.50,,2013-06-25 15:11:00,
2013-06-25 10:22:00,83.0,75.0,-100.00,SW,224,6.0,11.0,77,0.00,,,0.50,,2013-06-25 15:22:00,
2013-06-25 10:32:00,83.0,75.0,-100.00,SW,224,6.0,11.0,77,0.00,,,0.50,,2013-06-25 15:32:00,
2013-06-25 10:44:00,83.0,75.0,-100.00,SW,224,6.0,11.0,77,0.00,,,0.50,,2013-06-25 15:44:00,
2013-06-25 11:12:00,86.0,73.0,-100.00,SSW,201,9.0,14.0,66,0.00,,,0.50,,2013-06-25 16:12:00,
2013-06-25 11:23:00,86.0,73.0,-100.00,SSW,201,9.0,14.0,66,0.00,,,0.50,,2013-06-25 16:23:00,
2013-06-25 11:35:00,86.0,73.0,-100.00,SSW,201,9.0,14.0,66,0.00,,,0.50,,2013-06-25 16:35:00,
2013-06-25 11:44:00,86.0,73.0,-100.00,SSW,201,9.0,14.0,66,0.00,,,0.50,,2013-06-25 16:44:00,
2013-06-25 12:11:00,88.0,73.0,-100.00,SSW,211,5.0,7.0,62,0.00,,,0.50,,2013-06-25 17:11:00,
2013-06-25 12:22:00,88.0,73.0,-100.00,SSW,211,5.0,7.0,62,0.00,,,0.50,,2013-06-25 17:22:00,
2013-06-25 12:33:00,88.0,73.0,-100.00,SSW,211,5.0,7.0,62,0.00,,,0.50,,2013-06-25 17:33:00,
2013-06-25 12:44:00,88.0,73.0,-100.00,SSW,211,5.0,7.0,62,0.00,,,0.50,,2013-06-25 17:44:00,
2013-06-25 13:12:00,88.0,72.0,-100.00,SW,233,6.0,8.0,59,0.00,,,0.50,,2013-06-25 18:12:00,
2013-06-25 13:22:00,88.0,72.0,-100.00,SW,233,6.0,8.0,59,0.00,,,0.50,,2013-06-25 18:22:00,
2013-06-25 13:34:00,88.0,72.0,-100.00,SW,233,6.0,8.0,59,0.00,,,0.50,,2013-06-25 18:34:00,
2013-06-25 13:44:00,88.0,72.0,-100.00,SW,233,6.0,8.0,59,0.00,,,0.50,,2013-06-25 18:44:00,
2013-06-25 14:12:00,90.0,72.0,-100.00,South,179,5.0,9.0,56,0.00,,,0.50,,2013-06-25 19:12:00,
2013-06-25 14:22:00,90.0,72.0,-100.00,South,179,5.0,9.0,56,0.00,,,0.50,,2013-06-25 19:22:00,
2013-06-25 14:33:00,90.0,72.0,-100.00,South,179,5.0,9.0,56,0.00,,,0.50,,2013-06-25 19:33:00,
2013-06-25 14:44:00,90.0,72.0,-100.00,South,179,5.0,9.0,56,0.00,,,0.50,,2013-06-25 19:44:00,
2013-06-25 15:11:00,91.0,72.0,-100.00,SW,221,6.0,9.0,54,0.00,,,0.50,,2013-06-25 20:11:00,
2013-06-25 15:22:00,91.0,72.0,-100.00,SW,221,6.0,9.0,54,0.00,,,0.50,,2013-06-25 20:22:00,
2013-06-25 15:33:00,91.0,72.0,-100.00,SW,221,6.0,9.0,54,0.00,,,0.50,,2013-06-25 20:33:00,
2013-06-25 15:42:00,91.0,72.0,-100.00,SW,221,6.0,9.0,54,0.00,,,0.50,,2013-06-25 20:42:00,
2013-06-25 16:11:00,91.0,71.0,-100.00,SSW,213,7.0,11.0,53,0.00,,,0.50,,2013-06-25 21:11:00,
2013-06-25 16:22:00,91.0,71.0,-100.00,SSW,213,7.0,11.0,53,0.00,,,0.50,,2013-06-25 21:22:00,
2013-06-25 16:34:00,91.0,71.0,-100.00,SSW,213,7.0,11.0,53,0.00,,,0.50,,2013-06-25 21:34:00,
2013-06-25 16:43:00,91.0,71.0,-100.00,SSW,213,7.0,11.0,53,0.00,,,0.50,,2013-06-25 21:43:00,
2013-06-25 17:11:00,91.0,70.0,-100.00,SSW,210,6.0,10.0,50,0.00,,,0.50,,2013-06-25 22:11:00,
2013-06-25 17:22:00,91.0,70.0,-100.00,SSW,210,6.0,10.0,50,0.00,,,0.50,,2013-06-25 22:22:00,
2013-06-25 17:34:00,91.0,70.0,-100.00,SSW,210,6.0,10.0,50,0.00,,,0.50,,2013-06-25 22:34:00,
2013-06-25 17:42:00,91.0,70.0,-100.00,SSW,210,6.0,10.0,50,0.00,,,0.50,,2013-06-25 22:42:00,
2013-06-25 18:11:00,90.0,72.0,-100.00,SSW,202,6.0,9.0,55,0.00,,,0.50,,2013-06-25 23:11:00,
2013-06-25 18:22:00,90.0,72.0,-100.00,SSW,202,6.0,9.0,55,0.00,,,0.50,,2013-06-25 23:22:00,
2013-06-25 18:34:00,90.0,72.0,-100.00,SSW,202,6.0,9.0,55,0.00,,,0.50,,2013-06-25 23:34:00,
2013-06-25 18:44:00,90.0,72.0,-100.00,SSW,202,6.0,9.0,55,0.00,,,0.50,,2013-06-25 23:44:00,
2013-06-25 19:11:00,88.0,71.0,-100.00,SSW,193,6.0,8.0,57,0.00,,,0.01,,2013-06-26 00:11:00,
2013-06-25 19:22:00,88.0,71.0,-100.00,SSW,193,6.0,8.0,57,0.00,,,0.01,,2013-06-26 00:22:00,
2013-06-25 19:33:00,88.0,71.0,-100.00,SSW,193,6.0,8.0,57,0.00,,,0.01,,2013-06-26 00:33:00,
2013-06-25 19:42:00,88.0,71.0,-100.00,SSW,193,6.0,8.0,57,0.00,,,0.01,,2013-06-26 00:42:00,
2013-06-25 20:11:00,85.0,71.0,-100.00,South,179,3.0,5.0,63,0.00,,,0.01,,2013-06-26 01:11:00,
2013-06-25 20:22:00,85.0,71.0,-100.00,South,179,3.0,5.0,63,0.00,,,0.01,,2013-06-26 01:22:00,
2013-06-25 20:33:00,85.0,71.0,-100.00,South,179,3.0,5.0,63,0.00,,,0.01,,2013-06-26 01:33:00,
2013-06-25 20:43:00,85.0,71.0,-100.00,South,179,3.0,5.0,63,0.00,,,0.01,,2013-06-26 01:43:00,
2013-06-25 21:11:00,78.0,74.0,-100.00,East,99,0.0,0.0,88,0.00,,,0.01,,2013-06-26 02:11:00,
2013-06-25 21:22:00,78.0,74.0,-100.00,East,99,0.0,0.0,88,0.00,,,0.01,,2013-06-26 02:22:00,
2013-06-25 21:34:00,78.0,74.0,-100.00,East,99,0.0,0.0,88,0.00,,,0.01,,2013-06-26 02:34:00,
2013-06-25 21:43:00,78.0,74.0,-100.00,East,99,0.0,0.0,88,0.00,,,0.01,,2013-06-26 02:43:00,
2013-06-25 22:11:00,76.0,74.0,-100.00,South,176,0.0,0.0,93,0.00,,,0.01,,2013-06-26 03:11:00,
2013-06-25 22:22:00,76.0,74.0,-100.00,South,176,0.0,0.0,93,0.00,,,0.01,,2013-06-26 03:22:00,
2013-06-25 22:33:00,76.0,74.0,-100.00,South,176,0.0,0.0,93,0.00,,,0.01,,2013-06-26 03:33:00,
2013-06-25 22:43:00,76.0,74.0,-100.00,South,176,0.0,0.0,93,0.00,,,0.01,,2013-06-26 03:43:00,
2013-06-25 23:12:00,77.0,74.0,-100.00,South,178,4.0,6.0,90,0.00,,,0.01,,2013-06-26 04:12:00,
2013-06-25 23:22:00,77.0,74.0,-100.00,South,178,4.0,6.0,90,0.00,,,0.01,,2013-06-26 04:22:00,
2013-06-25 23:33:00,77.0,74.0,-100.00,South,178,4.0,6.0,90,0.00,,,0.01,,2013-06-26 04:33:00,
2013-06-25 23:43:00,77.0,74.0,-100.00,South,178,4.0,6.0,90,0.00,,,0.01,,2013-06-26 04:43:00,